createdAt,value
2023-01-17T02:08:12.036Z,99220.58
2023-01-17T02:10:39.876Z,99216.15
2023-01-17T02:13:06.858Z,99215.77
2023-01-17T02:15:51.389Z,99213.92
2023-01-17T02:18:24.196Z,99210.79
2023-01-17T02:21:10.289Z,99205.30
2023-01-17T02:24:02.309Z,99201.79
2023-01-17T02:26:37.041Z,99193.80
2023-01-17T02:29:43.836Z,99184.73
2023-01-17T02:32:26.173Z,99176.28
2023-01-17T02:35:20.503Z,99172.84
2023-01-17T02:37:58.485Z,99167.95
2023-01-17T02:40:28.382Z,99162.34
2023-01-17T02:43:02.693Z,99157.46
2023-01-17T02:45:29.557Z,99159.15
2023-01-17T02:47:56.324Z,99153.56
2023-01-17T02:50:25.572Z,99152.45
2023-01-17T02:53:24.168Z,99150.02
2023-01-17T02:56:10.359Z,99150.35
2023-01-17T02:58:52.483Z,99150.71
2023-01-17T03:01:27.625Z,99146.88
2023-01-17T03:04:04.703Z,99141.90
2023-01-17T03:06:37.681Z,99137.88
2023-01-17T03:09:04.513Z,99135.30
2023-01-17T03:11:31.259Z,99128.37
2023-01-17T03:13:58.135Z,99130.08
2023-01-17T03:16:26.404Z,99131.83
2023-01-17T03:18:54.036Z,99131.67
2023-01-17T03:21:21.690Z,99132.45
2023-01-17T03:23:48.546Z,99132.83
2023-01-17T03:26:15.658Z,99129.09
2023-01-17T03:28:42.526Z,99132.67
2023-01-17T03:31:09.237Z,99132.39
2023-01-17T03:33:35.851Z,99132.02
2023-01-17T03:36:02.495Z,99134.74
2023-01-17T03:38:29.342Z,99136.16
2023-01-17T03:40:56.071Z,99132.91
2023-01-17T03:43:22.984Z,99133.73
2023-01-17T03:45:50.562Z,99127.96
2023-01-17T03:48:18.545Z,99125.95
2023-01-17T03:50:45.243Z,99112.67
2023-01-17T03:53:11.895Z,99107.46
2023-01-17T08:46:32.756Z,99069.32
2023-01-17T08:49:00.457Z,99066.88
2023-01-17T08:51:27.726Z,99061.11
2023-01-17T08:53:55.267Z,99054.23
2023-01-17T08:56:23.746Z,99054.05
2023-01-17T08:58:50.505Z,99048.73
2023-01-17T09:01:17.264Z,99043.96
2023-01-17T09:03:45.640Z,99040.48
2023-01-17T09:06:13.757Z,99037.23
2023-01-17T09:08:40.641Z,99030.57
2023-01-17T09:11:08.648Z,99032.63
2023-01-17T09:13:35.776Z,99032.33
2023-01-17T09:16:02.669Z,99030.17
2023-01-17T09:18:30.254Z,99021.55
2023-01-17T09:20:59.246Z,99022.76
2023-01-17T09:23:27.053Z,99013.52
2023-01-17T09:25:58.065Z,99007.59
2023-01-17T09:28:25.819Z,98997.17
2023-01-17T09:30:52.583Z,98993.66
2023-01-17T09:33:19.716Z,98991.09
2023-01-17T09:35:46.642Z,98987.80
2023-01-17T09:38:13.414Z,98988.36
2023-01-17T09:40:46.396Z,98985.17
2023-01-17T09:43:33.605Z,98987.35
2023-01-17T09:46:00.685Z,98987.32
2023-01-17T09:48:32.915Z,98986.92
2023-01-17T09:51:01.304Z,98987.86
2023-01-17T09:53:28.035Z,98982.08
2023-01-17T09:55:59.640Z,98978.23
2023-01-17T09:58:34.989Z,98976.70
2023-01-17T10:01:14.808Z,98977.02
2023-01-17T10:03:57.177Z,98973.33
2023-01-17T10:06:45.429Z,98975.30
2023-01-17T10:09:22.015Z,98972.46
2023-01-17T10:12:19.178Z,98967.31
2023-01-17T10:14:45.801Z,98965.59
2023-01-17T10:17:31.353Z,98964.40
2023-01-17T10:20:13.428Z,98964.20
2023-01-17T10:22:49.360Z,98967.81
2023-01-17T10:26:04.141Z,98964.99
2023-01-17T10:28:34.722Z,98965.45
2023-01-17T10:31:10.450Z,98957.87
2023-01-17T10:33:40.490Z,98948.60
2023-01-17T10:36:20.789Z,98948.16
2023-01-17T10:38:49.535Z,98947.77
2023-01-17T10:41:24.514Z,98946.02
2023-01-17T10:44:29.035Z,98947.88
2023-01-17T10:47:01.765Z,98944.89
2023-01-17T10:49:28.571Z,98938.34
2023-01-17T10:52:13.731Z,98930.40
2023-01-17T10:54:43.363Z,98930.88
2023-01-17T10:57:24.044Z,98923.85
2023-01-17T10:59:51.522Z,98925.01
2023-01-17T11:02:29.342Z,98919.17
2023-01-17T11:04:56.500Z,98913.82
2023-01-17T11:07:27.397Z,98909.16
2023-01-17T11:09:55.832Z,98902.08
2023-01-17T11:12:45.205Z,98897.53
2023-01-17T11:15:11.889Z,98894.49
2023-01-17T11:17:43.037Z,98882.39
2023-01-17T11:20:15.749Z,98888.11
2023-01-17T11:22:45.941Z,98884.35
2023-01-17T11:25:20.266Z,98886.19
2023-01-17T11:27:57.501Z,98880.54
2023-01-17T11:30:29.451Z,98878.50
2023-01-17T11:32:59.656Z,98878.13
2023-01-17T11:35:35.336Z,98882.98
2023-01-17T11:38:01.978Z,98881.50
2023-01-17T11:40:30.542Z,98880.99
2023-01-17T11:43:18.870Z,98874.90
2023-01-17T11:45:46.393Z,98865.89
2023-01-17T11:48:15.261Z,98867.23
2023-01-17T11:51:03.998Z,98867.90
2023-01-17T17:56:55.833Z,98938.77
2023-01-17T17:59:23.961Z,98937.50
2023-01-17T18:01:50.861Z,98941.69
2023-01-17T18:04:17.937Z,98942.67
2023-01-17T18:06:44.645Z,98945.80
2023-01-17T18:09:11.725Z,98949.04
2023-01-17T18:11:39.527Z,98955.59
2023-01-17T18:14:06.671Z,98957.86
2023-01-17T18:16:39.244Z,98952.64
2023-01-17T18:19:06.548Z,98949.23
2023-01-17T18:21:37.056Z,98951.45
2023-01-17T18:24:09.333Z,98943.80
2023-01-17T18:26:57.228Z,98947.36
2023-01-17T18:29:24.878Z,98963.12
2023-01-17T18:31:52.037Z,98971.86
2023-01-17T18:34:23.082Z,98971.76
2023-01-17T18:36:50.379Z,98974.06
2023-01-17T18:39:19.019Z,98973.25
2023-01-17T18:41:45.878Z,98980.38
2023-01-17T18:44:12.583Z,98972.67
2023-01-17T18:46:40.308Z,98979.16
2023-01-17T18:49:07.087Z,98992.82
2023-01-17T18:51:34.571Z,98997.75
2023-01-17T18:54:05.392Z,98998.54
2023-01-17T18:56:36.323Z,98999.16
2023-01-17T18:59:06.309Z,98994.98
2023-01-17T19:01:35.637Z,98995.08
2023-01-17T19:04:03.835Z,99000.13
2023-01-17T19:06:35.694Z,98996.58
2023-01-17T19:09:02.782Z,99008.80
2023-01-17T19:11:29.556Z,99011.02
2023-01-17T19:13:56.376Z,99008.58
2023-01-17T19:16:24.731Z,99008.66
2023-01-17T19:18:52.307Z,99012.21
2023-01-17T19:21:21.734Z,99016.89
2023-01-17T19:23:48.874Z,99026.05
2023-01-17T19:26:17.363Z,99034.67
2023-01-17T19:28:44.962Z,99037.52
2023-01-17T19:31:20.544Z,99025.58
2023-01-17T19:33:47.899Z,99024.00
2023-01-17T19:36:18.978Z,99030.00
2023-01-17T19:38:58.737Z,99033.56
